createdAt,value
2019-04-21T00:00:35.506Z,12.17
2019-04-21T00:03:11.461Z,10.67
2019-04-21T00:05:58.624Z,10.87
2019-04-21T00:08:33.409Z,10.93
2019-04-21T00:11:02.846Z,11.43
2019-04-21T00:13:23.760Z,11.50
2019-04-21T00:15:46.816Z,11.63
2019-04-21T00:18:47.906Z,10.60
2019-04-21T00:21:18.321Z,11.03
2019-04-21T00:23:56.186Z,11.23
2019-04-21T00:26:29.074Z,10.43
2019-04-21T00:29:04.087Z,10.47
2019-04-21T00:31:30.865Z,10.13
2019-04-21T00:33:46.717Z,10.87
2019-04-21T00:36:20.604Z,10.97
2019-04-21T00:39:18.539Z,10.37
2019-04-21T00:41:40.232Z,10.50
2019-04-21T00:44:00.644Z,10.80
2019-04-21T00:46:34.769Z,11.53
2019-04-21T00:49:09.516Z,9.50
2019-04-21T00:51:54.322Z,9.67
2019-04-21T00:54:16.966Z,10.27
2019-04-21T00:56:49.680Z,10.67
2019-04-21T00:59:19.279Z,10.63
2019-04-21T01:01:46.171Z,10.47
2019-04-21T01:04:17.092Z,9.97
2019-04-21T01:06:49.674Z,10.13
2019-04-21T01:09:17.406Z,11.10
2019-04-21T01:11:49.477Z,11.37
2019-04-21T01:14:32.888Z,11.50
2019-04-21T01:16:56.059Z,10.50
2019-04-21T01:19:20.967Z,10.73
2019-04-21T01:21:31.667Z,10.50
2019-04-21T01:24:08.222Z,11.07
2019-04-21T01:26:43.783Z,11.20
2019-04-21T01:29:22.799Z,11.73
2019-04-21T01:31:48.416Z,11.30
2019-04-21T01:34:20.624Z,11.43
2019-04-21T01:36:54.767Z,10.30
2019-04-21T01:39:29.682Z,10.43
2019-04-21T01:41:59.109Z,11.23
2019-04-21T01:44:36.098Z,11.00
2019-04-21T01:46:51.968Z,11.07
2019-04-21T01:49:24.258Z,10.37
2019-04-21T01:52:13.575Z,10.73
2019-04-21T01:54:55.988Z,10.97
2019-04-21T01:57:24.158Z,10.80
2019-04-21T01:59:51.172Z,10.10
2019-04-21T02:02:29.387Z,10.17
2019-04-21T02:05:06.971Z,10.73
2019-04-21T02:07:27.038Z,10.47
2019-04-21T02:10:09.160Z,11.17
2019-04-21T02:12:31.691Z,10.43
2019-04-21T02:15:11.551Z,10.70
2019-04-21T02:17:38.694Z,10.90
2019-04-21T02:20:00.610Z,9.77
2019-04-21T02:22:54.937Z,9.73
2019-04-21T02:27:36.438Z,10.77
2019-04-21T02:30:22.209Z,10.00
2019-04-21T02:35:40.607Z,9.60
2019-04-21T02:40:35.674Z,9.37
2019-04-21T02:43:02.678Z,9.53
2019-04-21T02:45:25.113Z,9.43
2019-04-21T02:48:08.765Z,10.67
2019-04-21T02:50:30.457Z,10.07
2019-04-21T02:52:55.472Z,9.53
2019-04-21T02:55:22.176Z,9.40
2019-04-21T02:58:06.144Z,9.60
2019-04-21T03:00:59.622Z,9.77
2019-04-21T03:06:28.990Z,9.50
2019-04-21T03:08:58.798Z,9.10
2019-04-21T03:11:31.308Z,9.57
2019-04-21T03:14:08.946Z,9.37
2019-04-21T03:16:28.540Z,9.33
2019-04-21T03:21:31.938Z,9.60
2019-04-21T03:24:12.868Z,9.73
2019-04-21T03:26:44.937Z,9.20
2019-04-21T03:29:05.821Z,9.57
2019-04-21T03:36:56.534Z,10.27
2019-04-21T03:39:01.230Z,9.53
2019-04-21T03:46:52.594Z,8.90
2019-04-21T03:49:22.657Z,9.23
2019-04-21T03:54:09.241Z,9.73
2019-04-21T03:56:59.099Z,7.93
2019-04-21T03:59:11.568Z,8.17
2019-04-21T04:01:58.433Z,8.30
2019-04-21T04:10:11.776Z,8.27
2019-04-21T04:12:54.784Z,9.37
2019-04-21T04:15:28.982Z,8.90
2019-04-21T04:17:46.796Z,8.40
2019-04-21T04:22:57.668Z,8.93
2019-04-21T04:25:20.875Z,8.80
2019-04-21T04:28:03.498Z,8.73
2019-04-21T04:30:21.600Z,8.60
2019-04-21T04:32:53.747Z,7.00
2019-04-21T04:38:07.097Z,8.27
2019-04-21T04:40:48.521Z,8.43
2019-04-21T04:43:13.251Z,7.87
2019-04-21T04:45:41.558Z,8.43
2019-04-21T04:48:07.573Z,7.70
2019-04-21T04:50:53.164Z,7.40
2019-04-21T04:53:17.901Z,8.90
2019-04-21T04:58:13.165Z,8.73
2019-04-21T05:03:19.379Z,8.90
2019-04-21T05:09:03.898Z,8.17
2019-04-21T05:16:36.369Z,9.17
2019-04-21T05:19:06.375Z,9.00
2019-04-21T05:21:34.680Z,8.97
2019-04-21T05:23:47.013Z,9.47
2019-04-21T05:26:10.987Z,9.20
2019-04-21T05:28:41.944Z,10.17
2019-04-21T05:31:50.912Z,9.77
2019-04-21T05:34:17.056Z,10.13
2019-04-21T05:37:25.759Z,9.43
2019-04-21T05:40:13.811Z,8.63
2019-04-21T05:42:53.272Z,8.50
2019-04-21T05:45:25.452Z,7.77
2019-04-21T05:48:12.141Z,6.80
2019-04-21T05:50:32.104Z,8.07
2019-04-21T05:53:00.726Z,8.13
2019-04-21T05:55:44.555Z,7.37
2019-04-21T05:58:06.954Z,7.63
2019-04-21T06:00:59.342Z,7.73
2019-04-21T06:05:54.640Z,6.80
2019-04-21T06:08:12.919Z,7.17
2019-04-21T06:10:50.848Z,6.80
2019-04-21T06:13:21.719Z,6.40
2019-04-21T06:15:52.948Z,6.93
2019-04-21T06:18:21.397Z,6.73
2019-04-21T06:20:47.977Z,6.43
2019-04-21T06:23:17.883Z,6.17
2019-04-21T06:26:12.168Z,6.77
2019-04-21T06:28:26.003Z,6.13
2019-04-21T06:31:03.793Z,6.10
2019-04-21T06:33:27.500Z,6.13
2019-04-21T06:36:26.472Z,6.63
2019-04-21T06:46:40.779Z,5.37
2019-04-21T06:49:11.187Z,6.20
2019-04-21T06:51:40.576Z,5.63
2019-04-21T06:54:09.463Z,5.73
2019-04-21T06:56:46.505Z,5.57
2019-04-21T06:59:22.063Z,4.93
2019-04-21T07:01:56.644Z,5.30
2019-04-21T07:04:18.587Z,4.77
2019-04-21T07:11:43.831Z,5.40
2019-04-21T07:16:53.057Z,4.37
2019-04-21T07:19:21.813Z,4.30
2019-04-21T07:21:45.444Z,4.73
2019-04-21T07:24:21.602Z,4.20
2019-04-21T07:26:51.551Z,4.37
2019-04-21T07:29:21.974Z,4.17
2019-04-21T07:34:28.527Z,4.77
2019-04-21T07:36:54.884Z,5.03
2019-04-21T07:39:18.106Z,3.97
2019-04-21T07:41:49.734Z,4.50
2019-04-21T07:44:17.041Z,4.93
2019-04-21T07:46:44.096Z,4.70
2019-04-21T07:49:53.165Z,3.83
2019-04-21T07:52:53.249Z,4.00
2019-04-21T07:57:31.634Z,4.90
2019-04-21T08:02:40.360Z,4.30
2019-04-21T08:10:11.987Z,4.23
2019-04-21T08:12:40.748Z,4.27
2019-04-21T08:15:15.724Z,3.87
2019-04-21T08:17:45.479Z,4.50
2019-04-21T08:20:15.607Z,4.23
2019-04-21T08:22:46.329Z,4.20
2019-04-21T08:25:15.186Z,4.63
2019-04-21T08:27:51.068Z,3.97
2019-04-21T08:30:20.994Z,4.37
2019-04-21T08:37:48.447Z,4.23
2019-04-21T08:40:30.319Z,4.13
2019-04-21T08:42:53.987Z,3.67
2019-04-21T08:45:21.998Z,3.30
2019-04-21T08:47:55.347Z,3.57
2019-04-21T08:50:20.736Z,3.43
2019-04-21T08:52:57.859Z,3.50
2019-04-21T08:55:39.699Z,3.40
2019-04-21T08:58:25.317Z,3.80
2019-04-21T09:01:06.640Z,3.63
2019-04-21T09:03:49.531Z,4.13
2019-04-21T09:06:30.219Z,4.47
2019-04-21T09:08:53.574Z,3.73
2019-04-21T09:11:16.298Z,3.47
2019-04-21T09:13:50.654Z,3.40
2019-04-21T09:16:15.434Z,4.00
2019-04-21T09:18:46.428Z,3.67
2019-04-21T09:21:26.870Z,3.07
2019-04-21T09:23:52.215Z,3.50
2019-04-21T09:26:26.395Z,3.50
2019-04-21T09:28:48.118Z,3.73
2019-04-21T09:31:08.515Z,3.33
2019-04-21T09:33:44.779Z,2.80
2019-04-21T09:36:13.080Z,2.97
2019-04-21T09:38:42.462Z,3.40
2019-04-21T09:41:15.938Z,3.30
2019-04-21T09:43:46.550Z,2.83
2019-04-21T09:46:11.790Z,2.80
2019-04-21T09:48:49.819Z,2.97
2019-04-21T09:51:12.965Z,3.00
2019-04-21T09:53:43.916Z,3.33
2019-04-21T09:56:17.841Z,3.03
2019-04-21T09:58:49.455Z,3.03
2019-04-21T10:01:22.748Z,3.30
2019-04-21T10:03:48.637Z,2.90
2019-04-21T10:06:17.417Z,3.20
2019-04-21T10:08:50.391Z,2.93
2019-04-21T10:11:19.548Z,2.97
2019-04-21T10:13:48.795Z,2.57
2019-04-21T10:16:29.808Z,3.60
2019-04-21T10:18:58.962Z,2.90
2019-04-21T10:21:29.297Z,3.33
2019-04-21T10:23:58.330Z,3.33
2019-04-21T10:26:28.644Z,3.43
2019-04-21T10:29:03.920Z,3.10
2019-04-21T10:31:29.028Z,3.17
2019-04-21T10:33:58.914Z,3.03
2019-04-21T10:36:28.943Z,2.97
2019-04-21T10:38:59.462Z,3.33
2019-04-21T10:41:29.812Z,3.57
2019-04-21T10:43:59.080Z,3.17
2019-04-21T10:46:28.898Z,3.33
2019-04-21T10:48:58.881Z,3.17
2019-04-21T10:51:28.767Z,3.33
2019-04-21T10:53:58.053Z,2.97
2019-04-21T10:56:31.301Z,2.87
2019-04-21T10:58:58.360Z,2.97
2019-04-21T11:01:29.565Z,3.17
2019-04-21T11:04:07.530Z,2.97
2019-04-21T11:06:36.862Z,3.53
2019-04-21T11:09:10.644Z,3.10
2019-04-21T11:11:39.924Z,3.10
2019-04-21T11:14:08.958Z,2.80
2019-04-21T11:16:39.165Z,3.60
2019-04-21T11:19:09.442Z,2.83
2019-04-21T11:21:38.804Z,2.77
2019-04-21T11:24:08.217Z,3.03
2019-04-21T11:26:37.902Z,2.90
2019-04-21T11:29:07.295Z,3.07
2019-04-21T11:31:36.911Z,3.33
2019-04-21T11:34:07.132Z,2.80
2019-04-21T11:36:37.393Z,2.93
2019-04-21T11:39:35.337Z,2.70
2019-04-21T11:41:54.065Z,2.73
2019-04-21T11:44:24.805Z,3.30
2019-04-21T11:46:54.410Z,2.83
2019-04-21T11:49:24.230Z,3.83
2019-04-21T11:51:55.125Z,2.67
2019-04-21T11:54:24.924Z,2.63
2019-04-21T11:56:56.908Z,2.80
2019-04-21T11:59:26.147Z,3.20
2019-04-21T12:01:55.318Z,2.93
2019-04-21T12:04:25.497Z,2.57
2019-04-21T12:06:55.993Z,2.70
2019-04-21T12:09:25.248Z,2.93
2019-04-21T12:11:54.152Z,2.17
2019-04-21T12:14:23.827Z,2.80
2019-04-21T12:16:53.066Z,3.50
2019-04-21T12:19:22.898Z,2.70
2019-04-21T12:22:02.421Z,2.87
2019-04-21T12:24:23.341Z,2.70
2019-04-21T12:26:52.366Z,3.00
2019-04-21T12:29:21.298Z,3.30
2019-04-21T12:32:08.178Z,2.83
2019-04-21T12:34:37.432Z,2.70
2019-04-21T12:37:06.718Z,1.90
2019-04-21T12:39:36.917Z,2.50
2019-04-21T12:42:06.765Z,3.27
2019-04-21T12:44:37.066Z,2.23
2019-04-21T12:47:06.236Z,2.70
2019-04-21T12:49:35.895Z,3.70
2019-04-21T12:52:05.972Z,3.00
2019-04-21T12:54:35.528Z,3.83
2019-04-21T12:57:05.424Z,3.30
2019-04-21T12:59:35.885Z,2.60
2019-04-21T13:02:05.695Z,3.40
2019-04-21T13:04:35.792Z,2.72
2019-04-21T13:07:05.585Z,2.83
2019-04-21T13:09:36.109Z,3.00
2019-04-21T13:12:06.835Z,2.95
2019-04-21T13:14:36.103Z,2.30
2019-04-21T13:17:05.620Z,2.67
2019-04-21T13:19:35.693Z,2.67
2019-04-21T13:22:05.855Z,2.80
2019-04-21T13:24:35.845Z,2.67
2019-04-21T13:27:05.722Z,2.98
2019-04-21T13:29:36.450Z,2.35
2019-04-21T13:32:07.469Z,2.50
2019-04-21T13:34:37.831Z,2.45
2019-04-21T13:37:07.700Z,2.33
2019-04-21T13:40:08.622Z,3.02
2019-04-21T13:42:26.761Z,2.50
2019-04-21T13:44:50.990Z,2.37
2019-04-21T13:47:20.789Z,2.42
2019-04-21T13:49:49.769Z,2.95
2019-04-21T13:52:18.767Z,2.70
2019-04-21T13:54:47.758Z,2.98
2019-04-21T13:57:16.839Z,2.40
2019-04-21T13:59:46.705Z,2.58
2019-04-21T14:02:16.449Z,2.85
2019-04-21T14:04:45.520Z,2.67
2019-04-21T14:07:14.537Z,2.93
2019-04-21T14:09:50.032Z,2.43
2019-04-21T14:12:14.447Z,2.40
2019-04-21T14:14:44.141Z,2.37
2019-04-21T14:17:13.269Z,2.50
2019-04-21T14:19:43.524Z,2.30
2019-04-21T14:22:14.368Z,2.20
2019-04-21T14:24:43.736Z,2.43
2019-04-21T14:27:14.244Z,2.70
2019-04-21T14:29:43.891Z,2.77
2019-04-21T14:32:13.969Z,3.10
2019-04-21T14:34:44.100Z,2.67
2019-04-21T14:37:14.831Z,2.57
2019-04-21T14:39:52.576Z,2.37
2019-04-21T14:42:15.920Z,2.20
2019-04-21T14:44:46.691Z,2.33
2019-04-21T14:47:34.967Z,2.50
2019-04-21T14:50:24.425Z,2.93
2019-04-21T14:53:18.509Z,2.37
2019-04-21T14:55:49.177Z,2.77
2019-04-21T14:58:19.134Z,2.53
2019-04-21T15:01:01.998Z,2.50
2019-04-21T15:03:32.071Z,2.13
2019-04-21T15:06:01.649Z,2.23
2019-04-21T15:08:31.291Z,3.17
2019-04-21T15:11:01.087Z,2.70
2019-04-21T15:13:30.164Z,2.73
2019-04-21T15:16:00.610Z,3.20
2019-04-21T15:18:30.597Z,3.03
2019-04-21T15:20:59.809Z,2.67
2019-04-21T15:23:30.541Z,2.10
2019-04-21T15:25:59.984Z,2.77
2019-04-21T15:28:32.123Z,2.83
2019-04-21T15:31:00.718Z,3.77
2019-04-21T15:33:30.672Z,3.37
2019-04-21T15:36:00.714Z,2.70
2019-04-21T15:38:29.932Z,2.90
2019-04-21T15:41:03.867Z,2.73
2019-04-21T15:43:30.671Z,2.60
2019-04-21T15:46:00.645Z,2.80
2019-04-21T15:48:30.833Z,2.63
2019-04-21T15:51:03.682Z,2.30
2019-04-21T15:53:31.974Z,3.23
2019-04-21T15:56:28.999Z,3.27
2019-04-21T15:59:26.485Z,3.30
2019-04-21T16:02:04.343Z,2.70
2019-04-21T16:04:34.645Z,2.30
2019-04-21T16:07:03.902Z,2.63
2019-04-21T16:09:34.522Z,2.87
2019-04-21T16:12:04.109Z,2.87
2019-04-21T16:14:34.509Z,3.03
2019-04-21T16:17:03.666Z,2.53
2019-04-21T16:19:33.354Z,2.70
2019-04-21T16:22:03.188Z,2.53
2019-04-21T16:24:33.704Z,2.97
2019-04-21T16:27:05.345Z,2.57
2019-04-21T16:29:33.464Z,2.77
2019-04-21T16:32:02.306Z,2.40
2019-04-21T16:34:49.228Z,2.93
2019-04-21T16:37:13.880Z,2.60
2019-04-21T16:39:43.312Z,2.30
2019-04-21T16:42:12.409Z,2.53
2019-04-21T16:44:42.875Z,2.37
2019-04-21T16:47:11.971Z,2.20
2019-04-21T16:49:41.209Z,2.40
2019-04-21T16:52:16.356Z,2.90
2019-04-21T16:54:47.763Z,3.03
2019-04-21T16:57:24.306Z,2.13
2019-04-21T17:00:02.531Z,2.57
2019-04-21T17:02:32.433Z,2.93
2019-04-21T17:05:02.641Z,2.33
2019-04-21T17:07:32.392Z,3.10
2019-04-21T17:10:02.556Z,2.20
2019-04-21T17:12:33.024Z,3.07
2019-04-21T17:15:18.814Z,2.90
2019-04-21T17:17:55.435Z,2.30
2019-04-21T17:20:15.682Z,2.80
2019-04-21T17:22:35.424Z,2.60
2019-04-21T17:25:04.822Z,2.30
2019-04-21T17:27:35.518Z,2.10
2019-04-21T17:30:06.569Z,2.13
2019-04-21T17:32:41.984Z,2.40
2019-04-21T17:35:08.085Z,2.00
2019-04-21T17:37:38.304Z,2.20
2019-04-21T17:40:09.040Z,2.63
2019-04-21T17:42:46.380Z,2.47
2019-04-21T17:45:09.224Z,2.60
2019-04-21T17:47:46.803Z,2.10
2019-04-21T17:50:31.612Z,2.30
2019-04-21T17:53:10.295Z,2.83
2019-04-21T17:55:40.624Z,3.17
2019-04-21T17:58:24.742Z,2.90
2019-04-21T18:03:40.275Z,3.47
2019-04-21T18:05:59.583Z,3.20
2019-04-21T18:08:32.529Z,2.93
2019-04-21T18:10:54.367Z,3.27
2019-04-21T18:13:19.184Z,2.17
2019-04-21T18:15:55.700Z,3.03
2019-04-21T18:18:16.693Z,2.80
2019-04-21T18:20:53.604Z,2.67
2019-04-21T18:23:52.136Z,2.93
2019-04-21T18:26:25.741Z,3.10
2019-04-21T18:28:41.446Z,8.50
2019-04-21T18:31:14.869Z,4.43
2019-04-21T18:33:49.425Z,4.20
2019-04-21T18:36:34.064Z,3.67
2019-04-21T18:39:30.037Z,3.20
2019-04-21T18:42:06.416Z,3.60
2019-04-21T18:45:20.706Z,3.30
2019-04-21T18:47:39.891Z,2.83
2019-04-21T18:50:18.598Z,3.57
2019-04-21T18:53:04.845Z,3.30
2019-04-21T18:55:32.282Z,3.43
2019-04-21T18:57:54.924Z,3.83
2019-04-21T19:00:30.670Z,3.97
2019-04-21T19:02:56.662Z,3.80
2019-04-21T19:05:27.969Z,3.73
2019-04-21T19:08:15.180Z,3.30
2019-04-21T19:10:48.565Z,3.47
2019-04-21T19:16:10.067Z,3.20
2019-04-21T19:18:38.774Z,3.80
2019-04-21T19:20:48.984Z,3.83
2019-04-21T19:23:21.548Z,3.77
2019-04-21T19:25:59.361Z,3.50
2019-04-21T19:28:18.195Z,3.43
2019-04-21T19:31:09.215Z,3.80
2019-04-21T19:33:22.418Z,3.90
2019-04-21T19:35:35.164Z,4.03
2019-04-21T19:38:08.392Z,2.97
2019-04-21T19:40:56.568Z,3.97
2019-04-21T19:43:23.188Z,4.13
2019-04-21T19:45:48.664Z,4.13
2019-04-21T19:48:25.259Z,4.77
2019-04-21T19:50:57.153Z,5.07
2019-04-21T19:53:24.294Z,4.27
2019-04-21T19:55:40.473Z,4.20
2019-04-21T19:58:10.759Z,4.33
2019-04-21T20:00:40.212Z,4.30
2019-04-21T20:03:10.473Z,3.80
2019-04-21T20:05:47.597Z,4.70
2019-04-21T20:08:25.020Z,4.27
2019-04-21T20:11:01.159Z,3.73
2019-04-21T20:13:42.112Z,4.47
2019-04-21T20:16:03.878Z,4.17
2019-04-21T20:18:24.444Z,4.70
2019-04-21T20:20:44.277Z,4.23
2019-04-21T20:23:19.288Z,4.13
2019-04-21T20:25:49.842Z,4.43
2019-04-21T20:28:27.443Z,4.20
2019-04-21T20:31:08.297Z,5.00
2019-04-21T20:33:46.912Z,4.97
2019-04-21T20:36:11.885Z,5.10
2019-04-21T20:38:31.305Z,4.90
2019-04-21T20:40:59.260Z,5.07
2019-04-21T20:43:53.374Z,4.73
2019-04-21T20:46:07.661Z,5.30
2019-04-21T20:48:41.438Z,4.67
2019-04-21T20:51:18.018Z,4.90
2019-04-21T20:53:41.528Z,5.60
2019-04-21T20:56:02.426Z,5.07
2019-04-21T20:58:41.394Z,5.70
2019-04-21T21:01:25.664Z,6.80
2019-04-21T21:03:44.384Z,5.90
2019-04-21T21:06:16.124Z,6.90
2019-04-21T21:08:46.855Z,6.17
2019-04-21T21:11:21.467Z,7.93
2019-04-21T21:13:47.817Z,8.30
2019-04-21T21:16:20.071Z,8.93
2019-04-21T21:21:23.468Z,8.90
2019-04-21T21:24:00.576Z,9.77
2019-04-21T21:26:25.779Z,9.57
2019-04-21T21:28:45.893Z,9.93
2019-04-21T21:31:25.075Z,10.20
2019-04-21T21:34:02.289Z,9.60
2019-04-21T21:36:30.472Z,10.07
2019-04-21T21:38:55.917Z,9.40
2019-04-21T21:41:16.638Z,8.87
2019-04-21T21:43:39.457Z,8.80
2019-04-21T21:46:26.751Z,8.97
2019-04-21T21:48:51.667Z,7.80
2019-04-21T21:51:18.925Z,9.27
2019-04-21T21:53:42.560Z,9.07
2019-04-21T21:56:11.860Z,7.87
2019-04-21T21:58:43.912Z,8.77
2019-04-21T22:01:14.785Z,8.17
2019-04-21T22:03:46.702Z,8.43
2019-04-21T22:06:19.231Z,9.13
2019-04-21T22:08:46.137Z,11.07
2019-04-21T22:11:15.849Z,10.70
2019-04-21T22:13:53.146Z,10.83
2019-04-21T22:16:18.155Z,8.87
2019-04-21T22:19:08.119Z,8.67
2019-04-21T22:21:38.602Z,8.47
2019-04-21T22:23:59.412Z,7.70
2019-04-21T22:26:19.033Z,7.63
2019-04-21T22:28:48.101Z,6.97
2019-04-21T22:31:22.644Z,7.50
2019-04-21T22:33:53.250Z,6.50
2019-04-21T22:36:33.026Z,6.87
2019-04-21T22:39:11.837Z,7.10
2019-04-21T22:41:28.654Z,6.60
2019-04-21T22:43:53.782Z,5.90
2019-04-21T22:46:22.501Z,5.30
2019-04-21T22:48:55.993Z,5.43
2019-04-21T22:51:30.516Z,5.60
2019-04-21T22:53:55.823Z,5.40
2019-04-21T22:56:26.875Z,5.47
2019-04-21T22:58:55.025Z,5.47
2019-04-21T23:01:34.872Z,5.63
2019-04-21T23:04:00.881Z,4.93
2019-04-21T23:06:30.826Z,5.03
2019-04-21T23:08:57.162Z,4.23
2019-04-21T23:11:29.258Z,4.60
2019-04-21T23:14:04.097Z,5.07
2019-04-21T23:16:35.217Z,4.67
2019-04-21T23:19:16.993Z,5.50
2019-04-21T23:21:51.525Z,4.83
2019-04-21T23:24:16.111Z,5.30
2019-04-21T23:26:48.836Z,5.17
2019-04-21T23:29:17.338Z,5.03
2019-04-21T23:31:51.261Z,4.70
2019-04-21T23:34:04.460Z,5.73
2019-04-21T23:36:35.529Z,4.97
2019-04-21T23:39:13.196Z,5.23
2019-04-21T23:41:43.508Z,4.80
2019-04-21T23:44:11.365Z,6.53
2019-04-21T23:46:39.154Z,4.57
2019-04-21T23:49:24.293Z,4.33
2019-04-21T23:51:47.700Z,4.60
2019-04-21T23:54:11.324Z,4.80
2019-04-21T23:56:44.002Z,4.70
2019-04-21T23:59:14.668Z,5.10
